createdAt,value
2022-08-27T00:02:50.864Z,20.9
2022-08-27T00:17:19.154Z,21
2022-08-27T00:31:46.971Z,21
2022-08-27T00:46:16.604Z,21.1
2022-08-27T01:00:43.905Z,21.1
2022-08-27T01:15:20.044Z,20.6
2022-08-27T01:29:45.875Z,20.3
2022-08-27T01:44:07.473Z,20.3
2022-08-27T01:58:35.265Z,20.3
2022-08-27T02:13:01.501Z,20.5
2022-08-27T02:27:35.725Z,20.2
2022-08-27T02:42:04.938Z,19.9
2022-08-27T02:56:28.297Z,20
2022-08-27T03:10:56.635Z,20.2
2022-08-27T03:25:30.171Z,19.9
2022-08-27T03:40:00.513Z,19.7
2022-08-27T03:54:20.041Z,20
2022-08-27T04:08:48.235Z,19.7
2022-08-27T04:23:16.625Z,19.8
2022-08-27T04:37:44.076Z,19.7
2022-08-27T04:52:10.407Z,19.7
2022-08-27T05:06:45.042Z,19.7
2022-08-27T05:21:07.673Z,19.7
2022-08-27T05:35:43.638Z,19.6
2022-08-27T05:50:13.835Z,19.2
2022-08-27T06:04:43.714Z,19.3
2022-08-27T06:19:06.785Z,19.1
2022-08-27T06:33:35.491Z,19.4
2022-08-27T06:48:03.793Z,19.4
2022-08-27T07:02:31.779Z,19.4
2022-08-27T07:16:59.726Z,19.5
2022-08-27T07:31:27.470Z,19.6
2022-08-27T07:45:55.319Z,19.5
2022-08-27T08:00:24.576Z,19.8
2022-08-27T08:14:50.656Z,19.8
2022-08-27T08:29:18.700Z,20.1
2022-08-27T08:43:47.568Z,20.3
2022-08-27T08:58:22.017Z,20.1
2022-08-27T09:12:50.934Z,20.1
2022-08-27T09:27:19.992Z,20.4
2022-08-27T09:41:50.179Z,20.5
2022-08-27T09:56:14.928Z,20.6
2022-08-27T10:10:43.326Z,20.6
2022-08-27T10:25:12.384Z,21.1
2022-08-27T10:39:39.644Z,21.5
2022-08-27T10:54:07.071Z,21.5
2022-08-27T11:08:34.997Z,21.4
2022-08-27T11:23:05.774Z,21.5
2022-08-27T11:37:37.514Z,21.4
2022-08-27T11:52:04.976Z,21.5
2022-08-27T12:06:27.257Z,21.7
2022-08-27T12:20:56.000Z,21.8
2022-08-27T12:35:25.087Z,22.4
2022-08-27T12:49:55.173Z,22.2
2022-08-27T13:04:21.512Z,22.4
2022-08-27T13:18:49.626Z,23.1
2022-08-27T13:33:17.612Z,23.1
2022-08-27T13:47:46.303Z,23.2
2022-08-27T14:02:16.126Z,23.4
2022-08-27T14:16:43.796Z,23.5
2022-08-27T14:31:08.584Z,23.1
2022-08-27T14:45:35.122Z,23
2022-08-27T15:00:03.026Z,22.9
2022-08-27T15:14:29.164Z,22.5
2022-08-27T15:29:05.752Z,22.3
2022-08-27T15:43:32.924Z,22.2
2022-08-27T15:57:57.698Z,22.4
2022-08-27T16:12:27.123Z,22.2
2022-08-27T16:26:53.771Z,22
2022-08-27T16:41:21.588Z,22.2
2022-08-27T16:55:50.121Z,22.1
2022-08-27T17:10:18.622Z,22.2
2022-08-27T17:24:45.519Z,21.9
2022-08-27T17:39:13.450Z,22
2022-08-27T17:53:40.667Z,21.9
2022-08-27T18:08:14.723Z,21.8
2022-08-27T18:22:48.184Z,21.7
2022-08-27T18:37:10.047Z,21.5
2022-08-27T18:51:37.838Z,21.6
2022-08-27T19:06:06.828Z,21.6
2022-08-27T19:20:30.721Z,21.4
2022-08-27T19:34:58.239Z,21.4
2022-08-27T19:49:30.030Z,21.4
2022-08-27T20:03:59.221Z,21.4
2022-08-27T20:18:23.674Z,21.2
2022-08-27T20:32:50.397Z,21
2022-08-27T20:47:19.443Z,21.1
2022-08-27T21:01:47.116Z,21
2022-08-27T21:16:15.071Z,20.9
2022-08-27T21:30:42.511Z,20.7
2022-08-27T21:45:11.410Z,20.8
2022-08-27T21:59:39.403Z,20.7
2022-08-27T22:14:07.342Z,21
2022-08-27T22:28:36.253Z,20.7
2022-08-27T22:43:04.155Z,20.9
2022-08-27T22:57:31.796Z,20.7
2022-08-27T23:11:58.793Z,20.7
2022-08-27T23:26:27.247Z,20.5
2022-08-27T23:40:56.499Z,20.7
2022-08-27T23:55:24.292Z,20.5
